sensor_id;sensor_type;location;lat;lon;timestamp;P1;durP1;ratioP1;P2;durP2;ratioP2
21418;SDS011;10870;51.384;10.316;2022-11-15T00:02:05;27.85;;;17.35;;
21418;SDS011;10870;51.384;10.316;2022-11-15T00:04:15;26.88;;;18.38;;
21418;SDS011;10870;51.384;10.316;2022-11-15T00:06:22;25.42;;;18.17;;
21418;SDS011;10870;51.384;10.316;2022-11-15T00:11:33;28.27;;;20.98;;
21418;SDS011;10870;51.384;10.316;2022-11-15T00:13:40;29.35;;;20.33;;
21418;SDS011;10870;51.384;10.316;2022-11-15T00:16:02;29.73;;;20.92;;
21418;SDS011;10870;51.384;10.316;2022-11-15T00:18:16;28.58;;;18.38;;
21418;SDS011;10870;51.384;10.316;2022-11-15T00:20:36;23.92;;;15.13;;
21418;SDS011;10870;51.384;10.316;2022-11-15T00:22:43;16.70;;;13.27;;
21418;SDS011;10870;51.384;10.316;2022-11-15T00:24:57;24.33;;;17.65;;
21418;SDS011;10870;51.384;10.316;2022-11-15T00:27:00;22.08;;;16.33;;
21418;SDS011;10870;51.384;10.316;2022-11-15T00:29:08;23.90;;;17.20;;
21418;SDS011;10870;51.384;10.316;2022-11-15T00:31:20;30.42;;;19.85;;
21418;SDS011;10870;51.384;10.316;2022-11-15T00:33:27;25.58;;;18.50;;
21418;SDS011;10870;51.384;10.316;2022-11-15T00:35:31;22.73;;;18.63;;
21418;SDS011;10870;51.384;10.316;2022-11-15T00:37:43;19.20;;;14.75;;
21418;SDS011;10870;51.384;10.316;2022-11-15T00:39:47;26.40;;;18.05;;
21418;SDS011;10870;51.384;10.316;2022-11-15T00:41:51;26.83;;;18.90;;
21418;SDS011;10870;51.384;10.316;2022-11-15T00:43:59;25.00;;;17.80;;
21418;SDS011;10870;51.384;10.316;2022-11-15T00:46:07;23.17;;;16.05;;
21418;SDS011;10870;51.384;10.316;2022-11-15T00:48:13;23.48;;;16.55;;
21418;SDS011;10870;51.384;10.316;2022-11-15T00:50:21;23.15;;;15.38;;
21418;SDS011;10870;51.384;10.316;2022-11-15T00:52:22;24.33;;;17.13;;
21418;SDS011;10870;51.384;10.316;2022-11-15T00:54:23;28.23;;;18.70;;
21418;SDS011;10870;51.384;10.316;2022-11-15T00:56:25;26.10;;;17.13;;
21418;SDS011;10870;51.384;10.316;2022-11-15T00:58:34;23.45;;;15.95;;
21418;SDS011;10870;51.384;10.316;2022-11-15T01:00:39;23.80;;;16.13;;
21418;SDS011;10870;51.384;10.316;2022-11-15T01:02:43;27.92;;;17.77;;
21418;SDS011;10870;51.384;10.316;2022-11-15T01:04:55;27.45;;;18.60;;
21418;SDS011;10870;51.384;10.316;2022-11-15T01:07:00;27.88;;;19.52;;
21418;SDS011;10870;51.384;10.316;2022-11-15T01:09:06;25.48;;;18.65;;
21418;SDS011;10870;51.384;10.316;2022-11-15T01:11:30;29.85;;;20.50;;
21418;SDS011;10870;51.384;10.316;2022-11-15T01:13:32;29.20;;;19.58;;
21418;SDS011;10870;51.384;10.316;2022-11-15T01:15:40;27.13;;;18.33;;
21418;SDS011;10870;51.384;10.316;2022-11-15T01:17:44;30.50;;;20.15;;
21418;SDS011;10870;51.384;10.316;2022-11-15T01:20:04;29.58;;;20.15;;
21418;SDS011;10870;51.384;10.316;2022-11-15T01:22:08;23.75;;;18.90;;
21418;SDS011;10870;51.384;10.316;2022-11-15T01:24:12;25.70;;;18.35;;
21418;SDS011;10870;51.384;10.316;2022-11-15T01:26:15;15.45;;;11.52;;
21418;SDS011;10870;51.384;10.316;2022-11-15T01:28:32;22.27;;;15.43;;
21418;SDS011;10870;51.384;10.316;2022-11-15T01:30:38;24.25;;;16.63;;
21418;SDS011;10870;51.384;10.316;2022-11-15T01:35:11;24.77;;;16.70;;
21418;SDS011;10870;51.384;10.316;2022-11-15T01:37:19;22.48;;;17.83;;
21418;SDS011;10870;51.384;10.316;2022-11-15T01:39:24;23.58;;;18.13;;
21418;SDS011;10870;51.384;10.316;2022-11-15T01:41:33;20.70;;;14.95;;
21418;SDS011;10870;51.384;10.316;2022-11-15T01:43:51;23.58;;;17.27;;
21418;SDS011;10870;51.384;10.316;2022-11-15T01:48:33;20.20;;;15.15;;
21418;SDS011;10870;51.384;10.316;2022-11-15T01:50:40;20.77;;;13.65;;
21418;SDS011;10870;51.384;10.316;2022-11-15T01:52:53;19.00;;;13.18;;
21418;SDS011;10870;51.384;10.316;2022-11-15T01:55:11;18.58;;;13.13;;
21418;SDS011;10870;51.384;10.316;2022-11-15T01:57:26;19.92;;;13.63;;
21418;SDS011;10870;51.384;10.316;2022-11-15T01:59:38;23.90;;;13.20;;
21418;SDS011;10870;51.384;10.316;2022-11-15T02:01:41;18.52;;;13.65;;
21418;SDS011;10870;51.384;10.316;2022-11-15T02:03:47;21.52;;;13.50;;
21418;SDS011;10870;51.384;10.316;2022-11-15T02:05:56;20.88;;;13.25;;
21418;SDS011;10870;51.384;10.316;2022-11-15T02:08:02;19.17;;;13.02;;
21418;SDS011;10870;51.384;10.316;2022-11-15T02:10:10;22.63;;;12.18;;
21418;SDS011;10870;51.384;10.316;2022-11-15T02:12:19;19.98;;;12.77;;
21418;SDS011;10870;51.384;10.316;2022-11-15T02:14:26;22.02;;;14.23;;
21418;SDS011;10870;51.384;10.316;2022-11-15T02:16:43;20.58;;;14.25;;
21418;SDS011;10870;51.384;10.316;2022-11-15T02:34:54;17.35;;;10.57;;
21418;SDS011;10870;51.384;10.316;2022-11-15T02:42:06;17.38;;;10.93;;
21418;SDS011;10870;51.384;10.316;2022-11-15T02:44:39;15.70;;;13.57;;
21418;SDS011;10870;51.384;10.316;2022-11-15T02:47:04;17.55;;;14.02;;
21418;SDS011;10870;51.384;10.316;2022-11-15T02:49:19;17.85;;;15.80;;
21418;SDS011;10870;51.384;10.316;2022-11-15T02:51:30;24.80;;;18.30;;
21418;SDS011;10870;51.384;10.316;2022-11-15T02:53:43;20.47;;;14.57;;
21418;SDS011;10870;51.384;10.316;2022-11-15T02:55:51;24.30;;;20.45;;
21418;SDS011;10870;51.384;10.316;2022-11-15T03:00:24;28.08;;;19.95;;
21418;SDS011;10870;51.384;10.316;2022-11-15T03:02:32;20.80;;;15.90;;
21418;SDS011;10870;51.384;10.316;2022-11-15T03:09:23;23.10;;;17.08;;
21418;SDS011;10870;51.384;10.316;2022-11-15T03:11:36;19.48;;;14.98;;
21418;SDS011;10870;51.384;10.316;2022-11-15T03:18:16;18.45;;;13.10;;
21418;SDS011;10870;51.384;10.316;2022-11-15T03:20:26;18.92;;;13.27;;
21418;SDS011;10870;51.384;10.316;2022-11-15T03:22:29;20.70;;;13.95;;
21418;SDS011;10870;51.384;10.316;2022-11-15T03:24:35;20.55;;;13.27;;
21418;SDS011;10870;51.384;10.316;2022-11-15T03:27:30;16.95;;;11.45;;
21418;SDS011;10870;51.384;10.316;2022-11-15T03:29:37;18.42;;;12.80;;
21418;SDS011;10870;51.384;10.316;2022-11-15T03:31:50;15.57;;;11.43;;
21418;SDS011;10870;51.384;10.316;2022-11-15T03:33:55;16.80;;;11.23;;
21418;SDS011;10870;51.384;10.316;2022-11-15T03:36:01;16.27;;;11.15;;
21418;SDS011;10870;51.384;10.316;2022-11-15T03:40:09;11.20;;;8.77;;
21418;SDS011;10870;51.384;10.316;2022-11-15T03:46:37;12.95;;;9.43;;
21418;SDS011;10870;51.384;10.316;2022-11-15T03:48:47;16.23;;;9.30;;
21418;SDS011;10870;51.384;10.316;2022-11-15T03:50:59;14.45;;;9.98;;
21418;SDS011;10870;51.384;10.316;2022-11-15T03:53:01;11.88;;;9.55;;
21418;SDS011;10870;51.384;10.316;2022-11-15T03:55:09;14.55;;;10.27;;
21418;SDS011;10870;51.384;10.316;2022-11-15T03:57:13;13.32;;;10.18;;
21418;SDS011;10870;51.384;10.316;2022-11-15T03:59:33;15.07;;;10.77;;
21418;SDS011;10870;51.384;10.316;2022-11-15T04:01:49;15.27;;;9.90;;
21418;SDS011;10870;51.384;10.316;2022-11-15T04:03:56;13.25;;;10.10;;
21418;SDS011;10870;51.384;10.316;2022-11-15T04:06:00;15.48;;;10.52;;
21418;SDS011;10870;51.384;10.316;2022-11-15T04:08:07;13.48;;;10.82;;
21418;SDS011;10870;51.384;10.316;2022-11-15T04:10:32;13.10;;;10.43;;
21418;SDS011;10870;51.384;10.316;2022-11-15T04:12:42;14.50;;;10.45;;
21418;SDS011;10870;51.384;10.316;2022-11-15T04:14:46;13.13;;;10.38;;
21418;SDS011;10870;51.384;10.316;2022-11-15T04:17:09;17.92;;;9.57;;
21418;SDS011;10870;51.384;10.316;2022-11-15T04:19:13;16.13;;;10.07;;
21418;SDS011;10870;51.384;10.316;2022-11-15T04:21:36;13.52;;;9.57;;
21418;SDS011;10870;51.384;10.316;2022-11-15T04:26:36;16.63;;;9.70;;
21418;SDS011;10870;51.384;10.316;2022-11-15T04:28:44;11.48;;;9.15;;
21418;SDS011;10870;51.384;10.316;2022-11-15T04:31:07;13.93;;;9.65;;
21418;SDS011;10870;51.384;10.316;2022-11-15T04:33:27;15.05;;;10.07;;
21418;SDS011;10870;51.384;10.316;2022-11-15T04:35:37;11.00;;;8.80;;
21418;SDS011;10870;51.384;10.316;2022-11-15T04:37:48;11.20;;;8.05;;
21418;SDS011;10870;51.384;10.316;2022-11-15T04:40:00;11.00;;;8.82;;
21418;SDS011;10870;51.384;10.316;2022-11-15T04:42:19;12.43;;;8.77;;
21418;SDS011;10870;51.384;10.316;2022-11-15T04:44:38;14.27;;;7.90;;
21418;SDS011;10870;51.384;10.316;2022-11-15T04:46:48;12.73;;;8.50;;
21418;SDS011;10870;51.384;10.316;2022-11-15T04:48:49;10.60;;;8.23;;
21418;SDS011;10870;51.384;10.316;2022-11-15T04:51:01;11.82;;;8.45;;
21418;SDS011;10870;51.384;10.316;2022-11-15T04:53:10;14.80;;;8.90;;
21418;SDS011;10870;51.384;10.316;2022-11-15T04:55:16;13.20;;;8.73;;
21418;SDS011;10870;51.384;10.316;2022-11-15T04:57:22;9.95;;;7.93;;
21418;SDS011;10870;51.384;10.316;2022-11-15T04:59:29;13.48;;;8.73;;
21418;SDS011;10870;51.384;10.316;2022-11-15T05:01:32;9.95;;;7.53;;
21418;SDS011;10870;51.384;10.316;2022-11-15T05:03:43;12.05;;;8.10;;
21418;SDS011;10870;51.384;10.316;2022-11-15T05:06:10;12.35;;;7.85;;
21418;SDS011;10870;51.384;10.316;2022-11-15T05:08:16;9.15;;;6.93;;
21418;SDS011;10870;51.384;10.316;2022-11-15T05:10:25;11.55;;;8.77;;
21418;SDS011;10870;51.384;10.316;2022-11-15T05:12:29;12.70;;;7.13;;
21418;SDS011;10870;51.384;10.316;2022-11-15T05:14:31;13.60;;;7.85;;
21418;SDS011;10870;51.384;10.316;2022-11-15T05:16:38;11.25;;;7.10;;
21418;SDS011;10870;51.384;10.316;2022-11-15T05:18:53;15.25;;;8.00;;
21418;SDS011;10870;51.384;10.316;2022-11-15T05:21:04;11.73;;;8.25;;
21418;SDS011;10870;51.384;10.316;2022-11-15T05:23:06;12.38;;;7.80;;
21418;SDS011;10870;51.384;10.316;2022-11-15T05:25:10;11.43;;;8.10;;
21418;SDS011;10870;51.384;10.316;2022-11-15T05:27:17;10.73;;;8.05;;
21418;SDS011;10870;51.384;10.316;2022-11-15T05:29:23;11.68;;;8.25;;
21418;SDS011;10870;51.384;10.316;2022-11-15T05:31:43;12.43;;;8.35;;
21418;SDS011;10870;51.384;10.316;2022-11-15T05:34:14;13.40;;;8.25;;
21418;SDS011;10870;51.384;10.316;2022-11-15T05:36:46;11.32;;;7.90;;
21418;SDS011;10870;51.384;10.316;2022-11-15T05:38:50;13.63;;;9.60;;
21418;SDS011;10870;51.384;10.316;2022-11-15T05:40:55;12.80;;;9.75;;
21418;SDS011;10870;51.384;10.316;2022-11-15T05:42:56;13.18;;;10.30;;
21418;SDS011;10870;51.384;10.316;2022-11-15T05:44:59;12.68;;;8.77;;
21418;SDS011;10870;51.384;10.316;2022-11-15T05:47:14;15.38;;;9.77;;
21418;SDS011;10870;51.384;10.316;2022-11-15T05:49:20;12.35;;;9.65;;
21418;SDS011;10870;51.384;10.316;2022-11-15T05:51:37;13.38;;;9.55;;
21418;SDS011;10870;51.384;10.316;2022-11-15T05:53:59;12.32;;;9.50;;
21418;SDS011;10870;51.384;10.316;2022-11-15T05:56:02;14.07;;;10.18;;
21418;SDS011;10870;51.384;10.316;2022-11-15T05:58:07;14.88;;;10.40;;
21418;SDS011;10870;51.384;10.316;2022-11-15T06:00:08;13.50;;;10.15;;
21418;SDS011;10870;51.384;10.316;2022-11-15T06:02:11;17.70;;;10.38;;
21418;SDS011;10870;51.384;10.316;2022-11-15T06:04:15;16.27;;;10.32;;
21418;SDS011;10870;51.384;10.316;2022-11-15T06:06:26;15.57;;;10.40;;
21418;SDS011;10870;51.384;10.316;2022-11-15T06:08:56;13.77;;;10.05;;
21418;SDS011;10870;51.384;10.316;2022-11-15T06:11:09;15.07;;;11.20;;
21418;SDS011;10870;51.384;10.316;2022-11-15T06:13:16;17.92;;;11.40;;
21418;SDS011;10870;51.384;10.316;2022-11-15T06:15:28;16.02;;;10.65;;
21418;SDS011;10870;51.384;10.316;2022-11-15T06:17:45;14.48;;;9.90;;
21418;SDS011;10870;51.384;10.316;2022-11-15T06:20:01;14.40;;;9.90;;
21418;SDS011;10870;51.384;10.316;2022-11-15T06:22:05;15.60;;;11.95;;
21418;SDS011;10870;51.384;10.316;2022-11-15T06:24:07;14.48;;;9.88;;
21418;SDS011;10870;51.384;10.316;2022-11-15T06:26:13;28.00;;;11.30;;
21418;SDS011;10870;51.384;10.316;2022-11-15T06:28:39;12.07;;;10.30;;
21418;SDS011;10870;51.384;10.316;2022-11-15T06:30:41;13.90;;;10.60;;
21418;SDS011;10870;51.384;10.316;2022-11-15T06:32:45;13.57;;;9.80;;
21418;SDS011;10870;51.384;10.316;2022-11-15T06:34:52;14.57;;;10.13;;
21418;SDS011;10870;51.384;10.316;2022-11-15T06:36:53;15.82;;;10.13;;
21418;SDS011;10870;51.384;10.316;2022-11-15T06:39:14;14.80;;;9.88;;
21418;SDS011;10870;51.384;10.316;2022-11-15T06:41:18;14.48;;;9.55;;
21418;SDS011;10870;51.384;10.316;2022-11-15T06:43:22;19.17;;;11.65;;
21418;SDS011;10870;51.384;10.316;2022-11-15T06:47:53;11.98;;;8.57;;
21418;SDS011;10870;51.384;10.316;2022-11-15T06:49:57;13.00;;;9.60;;
21418;SDS011;10870;51.384;10.316;2022-11-15T06:52:12;14.00;;;9.98;;
21418;SDS011;10870;51.384;10.316;2022-11-15T06:54:30;17.67;;;11.30;;
21418;SDS011;10870;51.384;10.316;2022-11-15T06:56:59;15.15;;;10.32;;
21418;SDS011;10870;51.384;10.316;2022-11-15T06:59:03;15.80;;;10.50;;
21418;SDS011;10870;51.384;10.316;2022-11-15T07:01:15;15.32;;;11.68;;
21418;SDS011;10870;51.384;10.316;2022-11-15T07:03:23;15.00;;;9.57;;
21418;SDS011;10870;51.384;10.316;2022-11-15T07:05:27;14.98;;;9.98;;
21418;SDS011;10870;51.384;10.316;2022-11-15T07:07:37;14.05;;;10.35;;
21418;SDS011;10870;51.384;10.316;2022-11-15T07:09:46;13.68;;;10.88;;
21418;SDS011;10870;51.384;10.316;2022-11-15T07:12:02;14.82;;;9.75;;
21418;SDS011;10870;51.384;10.316;2022-11-15T07:14:11;16.60;;;11.45;;
21418;SDS011;10870;51.384;10.316;2022-11-15T07:16:25;15.60;;;10.35;;
21418;SDS011;10870;51.384;10.316;2022-11-15T07:18:47;12.63;;;9.30;;
21418;SDS011;10870;51.384;10.316;2022-11-15T07:21:20;18.65;;;10.32;;
21418;SDS011;10870;51.384;10.316;2022-11-15T07:23:32;15.65;;;11.13;;
21418;SDS011;10870;51.384;10.316;2022-11-15T07:25:45;14.05;;;9.70;;
21418;SDS011;10870;51.384;10.316;2022-11-15T07:28:00;16.73;;;10.32;;
21418;SDS011;10870;51.384;10.316;2022-11-15T07:30:03;17.75;;;10.02;;
21418;SDS011;10870;51.384;10.316;2022-11-15T07:32:11;13.13;;;9.77;;
21418;SDS011;10870;51.384;10.316;2022-11-15T07:34:15;14.70;;;9.63;;
21418;SDS011;10870;51.384;10.316;2022-11-15T07:36:33;12.27;;;9.23;;
21418;SDS011;10870;51.384;10.316;2022-11-15T07:38:39;12.93;;;9.15;;
21418;SDS011;10870;51.384;10.316;2022-11-15T07:43:02;14.13;;;8.90;;
21418;SDS011;10870;51.384;10.316;2022-11-15T07:45:16;13.93;;;9.48;;
21418;SDS011;10870;51.384;10.316;2022-11-15T07:47:25;14.95;;;10.00;;
21418;SDS011;10870;51.384;10.316;2022-11-15T07:49:43;13.27;;;9.90;;
21418;SDS011;10870;51.384;10.316;2022-11-15T07:51:49;12.60;;;9.10;;
21418;SDS011;10870;51.384;10.316;2022-11-15T07:53:57;16.35;;;9.95;;
21418;SDS011;10870;51.384;10.316;2022-11-15T07:56:10;13.18;;;9.50;;
21418;SDS011;10870;51.384;10.316;2022-11-15T07:58:16;13.68;;;9.52;;
21418;SDS011;10870;51.384;10.316;2022-11-15T08:00:29;14.05;;;8.73;;
21418;SDS011;10870;51.384;10.316;2022-11-15T08:02:31;20.08;;;9.10;;
21418;SDS011;10870;51.384;10.316;2022-11-15T08:04:32;14.73;;;8.32;;
21418;SDS011;10870;51.384;10.316;2022-11-15T08:06:40;15.38;;;9.23;;
21418;SDS011;10870;51.384;10.316;2022-11-15T08:08:41;13.85;;;9.00;;
21418;SDS011;10870;51.384;10.316;2022-11-15T08:10:45;12.50;;;8.45;;
21418;SDS011;10870;51.384;10.316;2022-11-15T08:12:46;12.00;;;7.82;;
21418;SDS011;10870;51.384;10.316;2022-11-15T08:14:48;10.95;;;7.03;;
21418;SDS011;10870;51.384;10.316;2022-11-15T08:16:50;10.18;;;8.25;;
21418;SDS011;10870;51.384;10.316;2022-11-15T08:18:54;14.35;;;10.07;;
21418;SDS011;10870;51.384;10.316;2022-11-15T08:21:01;13.15;;;7.97;;
21418;SDS011;10870;51.384;10.316;2022-11-15T08:23:04;15.15;;;10.30;;
21418;SDS011;10870;51.384;10.316;2022-11-15T08:25:29;15.32;;;10.20;;
21418;SDS011;10870;51.384;10.316;2022-11-15T08:27:36;17.73;;;10.63;;
21418;SDS011;10870;51.384;10.316;2022-11-15T08:29:41;15.13;;;11.52;;
21418;SDS011;10870;51.384;10.316;2022-11-15T08:31:44;14.20;;;9.68;;
21418;SDS011;10870;51.384;10.316;2022-11-15T08:33:48;12.23;;;10.00;;
21418;SDS011;10870;51.384;10.316;2022-11-15T08:35:55;14.93;;;10.48;;
21418;SDS011;10870;51.384;10.316;2022-11-15T08:38:02;13.75;;;10.15;;
21418;SDS011;10870;51.384;10.316;2022-11-15T08:40:17;12.27;;;7.72;;
21418;SDS011;10870;51.384;10.316;2022-11-15T08:42:23;12.25;;;8.80;;
21418;SDS011;10870;51.384;10.316;2022-11-15T08:44:31;11.43;;;7.85;;
21418;SDS011;10870;51.384;10.316;2022-11-15T08:46:36;9.32;;;6.90;;
21418;SDS011;10870;51.384;10.316;2022-11-15T08:48:40;12.48;;;8.75;;
21418;SDS011;10870;51.384;10.316;2022-11-15T08:50:43;11.77;;;7.82;;
21418;SDS011;10870;51.384;10.316;2022-11-15T08:52:45;10.75;;;7.90;;
21418;SDS011;10870;51.384;10.316;2022-11-15T08:54:48;10.48;;;8.20;;
21418;SDS011;10870;51.384;10.316;2022-11-15T08:56:51;11.52;;;7.38;;
21418;SDS011;10870;51.384;10.316;2022-11-15T08:58:53;9.73;;;7.75;;
21418;SDS011;10870;51.384;10.316;2022-11-15T09:00:55;11.55;;;8.48;;
21418;SDS011;10870;51.384;10.316;2022-11-15T09:03:10;12.43;;;9.15;;
21418;SDS011;10870;51.384;10.316;2022-11-15T09:05:24;10.73;;;8.65;;
21418;SDS011;10870;51.384;10.316;2022-11-15T09:07:28;13.80;;;9.55;;
21418;SDS011;10870;51.384;10.316;2022-11-15T09:09:45;12.93;;;9.63;;
21418;SDS011;10870;51.384;10.316;2022-11-15T09:11:48;13.48;;;8.52;;
21418;SDS011;10870;51.384;10.316;2022-11-15T09:13:51;10.25;;;8.35;;
21418;SDS011;10870;51.384;10.316;2022-11-15T09:15:52;10.30;;;7.88;;
21418;SDS011;10870;51.384;10.316;2022-11-15T09:17:53;13.20;;;8.35;;
21418;SDS011;10870;51.384;10.316;2022-11-15T09:19:55;10.13;;;9.00;;
21418;SDS011;10870;51.384;10.316;2022-11-15T09:21:59;12.05;;;8.48;;
21418;SDS011;10870;51.384;10.316;2022-11-15T09:24:00;11.20;;;8.57;;
21418;SDS011;10870;51.384;10.316;2022-11-15T09:26:04;12.35;;;7.70;;
21418;SDS011;10870;51.384;10.316;2022-11-15T09:28:08;10.50;;;7.65;;
21418;SDS011;10870;51.384;10.316;2022-11-15T09:30:17;12.05;;;7.20;;
21418;SDS011;10870;51.384;10.316;2022-11-15T09:32:23;10.45;;;7.72;;
21418;SDS011;10870;51.384;10.316;2022-11-15T09:34:34;7.47;;;6.70;;
21418;SDS011;10870;51.384;10.316;2022-11-15T09:36:35;10.38;;;7.32;;
21418;SDS011;10870;51.384;10.316;2022-11-15T09:38:39;11.55;;;7.00;;
21418;SDS011;10870;51.384;10.316;2022-11-15T09:40:44;11.52;;;6.45;;
21418;SDS011;10870;51.384;10.316;2022-11-15T09:43:09;7.93;;;6.00;;
21418;SDS011;10870;51.384;10.316;2022-11-15T09:45:16;10.25;;;6.57;;
21418;SDS011;10870;51.384;10.316;2022-11-15T09:47:33;8.95;;;5.82;;
21418;SDS011;10870;51.384;10.316;2022-11-15T09:49:37;9.35;;;6.22;;
21418;SDS011;10870;51.384;10.316;2022-11-15T09:51:39;8.02;;;6.00;;
21418;SDS011;10870;51.384;10.316;2022-11-15T10:04:26;9.07;;;6.50;;
21418;SDS011;10870;51.384;10.316;2022-11-15T10:06:28;9.95;;;6.05;;
21418;SDS011;10870;51.384;10.316;2022-11-15T10:08:33;10.18;;;6.03;;
21418;SDS011;10870;51.384;10.316;2022-11-15T10:10:48;11.25;;;6.32;;
21418;SDS011;10870;51.384;10.316;2022-11-15T10:13:06;10.35;;;5.35;;
21418;SDS011;10870;51.384;10.316;2022-11-15T10:15:17;9.55;;;6.47;;
21418;SDS011;10870;51.384;10.316;2022-11-15T10:24:28;5.78;;;5.20;;
21418;SDS011;10870;51.384;10.316;2022-11-15T10:26:35;8.48;;;5.22;;
21418;SDS011;10870;51.384;10.316;2022-11-15T10:28:39;6.40;;;4.80;;
21418;SDS011;10870;51.384;10.316;2022-11-15T10:30:44;6.88;;;5.13;;
21418;SDS011;10870;51.384;10.316;2022-11-15T10:32:46;7.20;;;4.85;;
21418;SDS011;10870;51.384;10.316;2022-11-15T10:34:50;7.30;;;5.47;;
21418;SDS011;10870;51.384;10.316;2022-11-15T10:36:58;7.20;;;5.40;;
21418;SDS011;10870;51.384;10.316;2022-11-15T10:39:01;5.28;;;4.78;;
21418;SDS011;10870;51.384;10.316;2022-11-15T10:41:06;10.07;;;5.80;;
21418;SDS011;10870;51.384;10.316;2022-11-15T10:43:17;10.57;;;6.05;;
21418;SDS011;10870;51.384;10.316;2022-11-15T10:45:29;8.75;;;6.05;;
21418;SDS011;10870;51.384;10.316;2022-11-15T10:47:31;8.70;;;6.38;;
21418;SDS011;10870;51.384;10.316;2022-11-15T10:49:33;9.63;;;5.32;;
21418;SDS011;10870;51.384;10.316;2022-11-15T10:51:35;7.65;;;5.50;;
21418;SDS011;10870;51.384;10.316;2022-11-15T10:53:52;7.97;;;5.18;;
21418;SDS011;10870;51.384;10.316;2022-11-15T10:56:00;8.75;;;6.03;;
21418;SDS011;10870;51.384;10.316;2022-11-15T10:58:09;8.40;;;5.90;;
21418;SDS011;10870;51.384;10.316;2022-11-15T11:02:26;6.40;;;4.85;;
21418;SDS011;10870;51.384;10.316;2022-11-15T11:04:28;9.38;;;5.85;;
21418;SDS011;10870;51.384;10.316;2022-11-15T11:07:19;7.65;;;5.10;;
21418;SDS011;10870;51.384;10.316;2022-11-15T11:09:00;6.60;;;5.38;;
21418;SDS011;10870;51.384;10.316;2022-11-15T11:11:05;6.32;;;5.13;;
21418;SDS011;10870;51.384;10.316;2022-11-15T11:15:28;7.90;;;5.78;;
21418;SDS011;10870;51.384;10.316;2022-11-15T11:22:05;10.73;;;5.80;;
21418;SDS011;10870;51.384;10.316;2022-11-15T11:26:32;7.30;;;5.55;;
21418;SDS011;10870;51.384;10.316;2022-11-15T11:33:00;7.60;;;5.60;;
21418;SDS011;10870;51.384;10.316;2022-11-15T11:48:13;5.75;;;4.35;;
21418;SDS011;10870;51.384;10.316;2022-11-15T11:52:33;8.98;;;5.65;;
21418;SDS011;10870;51.384;10.316;2022-11-15T11:56:50;8.05;;;5.10;;
21418;SDS011;10870;51.384;10.316;2022-11-15T11:58:52;8.25;;;4.95;;
21418;SDS011;10870;51.384;10.316;2022-11-15T12:01:09;8.05;;;5.60;;
21418;SDS011;10870;51.384;10.316;2022-11-15T12:03:15;7.70;;;5.22;;
21418;SDS011;10870;51.384;10.316;2022-11-15T12:05:27;10.60;;;5.18;;
21418;SDS011;10870;51.384;10.316;2022-11-15T12:07:32;7.68;;;5.25;;
21418;SDS011;10870;51.384;10.316;2022-11-15T12:09:41;8.85;;;5.50;;
21418;SDS011;10870;51.384;10.316;2022-11-15T12:12:00;7.97;;;6.40;;
21418;SDS011;10870;51.384;10.316;2022-11-15T12:14:27;8.75;;;5.40;;
21418;SDS011;10870;51.384;10.316;2022-11-15T12:16:30;8.57;;;5.70;;
21418;SDS011;10870;51.384;10.316;2022-11-15T12:18:33;5.38;;;4.80;;
21418;SDS011;10870;51.384;10.316;2022-11-15T12:20:35;6.70;;;4.97;;
21418;SDS011;10870;51.384;10.316;2022-11-15T12:22:49;7.85;;;5.35;;
21418;SDS011;10870;51.384;10.316;2022-11-15T12:25:06;9.13;;;5.30;;
21418;SDS011;10870;51.384;10.316;2022-11-15T12:29:19;8.27;;;4.80;;
21418;SDS011;10870;51.384;10.316;2022-11-15T12:33:39;8.63;;;4.80;;
21418;SDS011;10870;51.384;10.316;2022-11-15T12:35:42;6.03;;;5.05;;
21418;SDS011;10870;51.384;10.316;2022-11-15T12:37:47;5.05;;;4.55;;
21418;SDS011;10870;51.384;10.316;2022-11-15T12:44:15;7.05;;;4.60;;
21418;SDS011;10870;51.384;10.316;2022-11-15T12:55:51;7.35;;;4.43;;
21418;SDS011;10870;51.384;10.316;2022-11-15T12:57:45;8.48;;;5.40;;
21418;SDS011;10870;51.384;10.316;2022-11-15T13:06:33;6.50;;;5.00;;
21418;SDS011;10870;51.384;10.316;2022-11-15T13:08:37;12.43;;;6.70;;
21418;SDS011;10870;51.384;10.316;2022-11-15T13:10:38;11.00;;;7.25;;
21418;SDS011;10870;51.384;10.316;2022-11-15T13:14:54;9.18;;;5.35;;
21418;SDS011;10870;51.384;10.316;2022-11-15T13:16:58;10.55;;;5.60;;
21418;SDS011;10870;51.384;10.316;2022-11-15T13:19:02;6.72;;;5.40;;
21418;SDS011;10870;51.384;10.316;2022-11-15T13:21:17;7.75;;;5.22;;
21418;SDS011;10870;51.384;10.316;2022-11-15T13:23:38;8.35;;;5.30;;
21418;SDS011;10870;51.384;10.316;2022-11-15T13:27:44;7.35;;;5.22;;
21418;SDS011;10870;51.384;10.316;2022-11-15T13:29:45;9.15;;;5.63;;
21418;SDS011;10870;51.384;10.316;2022-11-15T13:31:49;5.28;;;4.63;;
21418;SDS011;10870;51.384;10.316;2022-11-15T13:33:51;8.20;;;5.57;;
21418;SDS011;10870;51.384;10.316;2022-11-15T13:35:56;7.38;;;4.63;;
21418;SDS011;10870;51.384;10.316;2022-11-15T13:37:59;5.82;;;4.80;;
21418;SDS011;10870;51.384;10.316;2022-11-15T13:40:24;11.48;;;5.85;;
21418;SDS011;10870;51.384;10.316;2022-11-15T13:42:27;8.80;;;5.75;;
21418;SDS011;10870;51.384;10.316;2022-11-15T13:44:30;6.55;;;4.53;;
21418;SDS011;10870;51.384;10.316;2022-11-15T13:46:32;7.97;;;5.28;;
21418;SDS011;10870;51.384;10.316;2022-11-15T13:48:34;8.15;;;5.40;;
21418;SDS011;10870;51.384;10.316;2022-11-15T13:50:36;7.10;;;5.32;;
21418;SDS011;10870;51.384;10.316;2022-11-15T13:52:40;6.88;;;5.18;;
21418;SDS011;10870;51.384;10.316;2022-11-15T13:56:48;6.20;;;4.85;;
21418;SDS011;10870;51.384;10.316;2022-11-15T13:58:51;7.38;;;5.30;;
21418;SDS011;10870;51.384;10.316;2022-11-15T14:01:03;6.78;;;5.18;;
21418;SDS011;10870;51.384;10.316;2022-11-15T14:05:16;8.23;;;6.15;;
21418;SDS011;10870;51.384;10.316;2022-11-15T14:07:18;10.80;;;7.72;;
21418;SDS011;10870;51.384;10.316;2022-11-15T14:09:36;9.73;;;7.03;;
21418;SDS011;10870;51.384;10.316;2022-11-15T14:11:49;9.15;;;6.07;;
21418;SDS011;10870;51.384;10.316;2022-11-15T14:16:17;10.80;;;5.75;;
21418;SDS011;10870;51.384;10.316;2022-11-15T14:20:41;7.78;;;6.30;;
21418;SDS011;10870;51.384;10.316;2022-11-15T14:22:50;11.95;;;6.32;;
21418;SDS011;10870;51.384;10.316;2022-11-15T14:29:31;10.85;;;5.72;;
21418;SDS011;10870;51.384;10.316;2022-11-15T14:31:33;9.85;;;5.70;;
21418;SDS011;10870;51.384;10.316;2022-11-15T14:33:35;13.90;;;9.18;;
21418;SDS011;10870;51.384;10.316;2022-11-15T14:35:37;6.80;;;5.68;;
21418;SDS011;10870;51.384;10.316;2022-11-15T14:37:39;6.47;;;5.03;;
21418;SDS011;10870;51.384;10.316;2022-11-15T14:39:48;7.20;;;5.82;;
21418;SDS011;10870;51.384;10.316;2022-11-15T14:41:49;8.68;;;6.63;;
21418;SDS011;10870;51.384;10.316;2022-11-15T14:43:53;7.45;;;5.90;;
21418;SDS011;10870;51.384;10.316;2022-11-15T14:45:54;10.88;;;7.30;;
21418;SDS011;10870;51.384;10.316;2022-11-15T14:48:03;7.05;;;6.00;;
21418;SDS011;10870;51.384;10.316;2022-11-15T14:50:10;8.88;;;6.15;;
21418;SDS011;10870;51.384;10.316;2022-11-15T14:54:25;9.57;;;6.82;;
21418;SDS011;10870;51.384;10.316;2022-11-15T14:56:29;10.82;;;6.70;;
21418;SDS011;10870;51.384;10.316;2022-11-15T14:58:30;12.02;;;7.03;;
21418;SDS011;10870;51.384;10.316;2022-11-15T15:00:31;14.30;;;8.55;;
21418;SDS011;10870;51.384;10.316;2022-11-15T15:02:35;10.90;;;7.53;;